sensor_id;sensor_type;location;lat;lon;timestamp;temperature;humidity
11005;DHT22;5555;59.622;16.556;2023-06-22T00:02:17;18.50;99.90
11005;DHT22;5555;59.622;16.556;2023-06-22T00:04:43;18.40;99.90
11005;DHT22;5555;59.622;16.556;2023-06-22T00:07:09;18.40;99.90
11005;DHT22;5555;59.622;16.556;2023-06-22T00:09:35;18.50;99.90
11005;DHT22;5555;59.622;16.556;2023-06-22T00:12:01;18.50;99.90
11005;DHT22;5555;59.622;16.556;2023-06-22T00:14:27;18.50;99.90
11005;DHT22;5555;59.622;16.556;2023-06-22T00:16:52;18.50;99.90
11005;DHT22;5555;59.622;16.556;2023-06-22T00:19:20;18.30;99.90
11005;DHT22;5555;59.622;16.556;2023-06-22T00:21:47;18.30;99.90
11005;DHT22;5555;59.622;16.556;2023-06-22T00:24:13;18.20;99.90
11005;DHT22;5555;59.622;16.556;2023-06-22T00:26:39;18.20;99.90
11005;DHT22;5555;59.622;16.556;2023-06-22T00:29:04;18.10;99.90
11005;DHT22;5555;59.622;16.556;2023-06-22T00:31:30;18.10;99.90
11005;DHT22;5555;59.622;16.556;2023-06-22T00:33:56;18.10;99.90
11005;DHT22;5555;59.622;16.556;2023-06-22T00:36:21;18.10;99.90
11005;DHT22;5555;59.622;16.556;2023-06-22T00:38:50;18.10;99.90
11005;DHT22;5555;59.622;16.556;2023-06-22T00:41:17;18.20;99.90
11005;DHT22;5555;59.622;16.556;2023-06-22T00:43:42;18.20;99.90
11005;DHT22;5555;59.622;16.556;2023-06-22T00:46:08;18.20;99.90
11005;DHT22;5555;59.622;16.556;2023-06-22T00:48:34;18.20;99.90
11005;DHT22;5555;59.622;16.556;2023-06-22T00:51:02;18.20;99.90
11005;DHT22;5555;59.622;16.556;2023-06-22T00:53:28;18.30;99.90
11005;DHT22;5555;59.622;16.556;2023-06-22T00:55:54;18.30;99.90
11005;DHT22;5555;59.622;16.556;2023-06-22T00:58:21;18.30;99.90
11005;DHT22;5555;59.622;16.556;2023-06-22T01:00:51;18.30;99.90
11005;DHT22;5555;59.622;16.556;2023-06-22T01:03:17;18.40;99.90
11005;DHT22;5555;59.622;16.556;2023-06-22T01:05:42;18.40;99.90
11005;DHT22;5555;59.622;16.556;2023-06-22T01:08:38;18.30;99.90
11005;DHT22;5555;59.622;16.556;2023-06-22T01:11:12;18.40;99.90
11005;DHT22;5555;59.622;16.556;2023-06-22T01:14:00;18.40;99.90
11005;DHT22;5555;59.622;16.556;2023-06-22T01:16:30;18.40;99.90
11005;DHT22;5555;59.622;16.556;2023-06-22T01:19:00;18.40;99.90
11005;DHT22;5555;59.622;16.556;2023-06-22T01:21:30;18.40;99.90
11005;DHT22;5555;59.622;16.556;2023-06-22T01:24:18;18.50;99.90
11005;DHT22;5555;59.622;16.556;2023-06-22T01:29:26;18.50;99.90
11005;DHT22;5555;59.622;16.556;2023-06-22T01:31:54;18.40;99.90
11005;DHT22;5555;59.622;16.556;2023-06-22T01:34:21;18.30;99.90
11005;DHT22;5555;59.622;16.556;2023-06-22T01:36:49;18.30;99.90
11005;DHT22;5555;59.622;16.556;2023-06-22T01:39:16;18.30;99.90
11005;DHT22;5555;59.622;16.556;2023-06-22T01:41:43;18.30;99.90
11005;DHT22;5555;59.622;16.556;2023-06-22T01:44:09;18.30;99.90
11005;DHT22;5555;59.622;16.556;2023-06-22T01:46:36;18.30;99.90
11005;DHT22;5555;59.622;16.556;2023-06-22T01:49:03;18.30;99.90
11005;DHT22;5555;59.622;16.556;2023-06-22T01:51:29;18.30;99.90
11005;DHT22;5555;59.622;16.556;2023-06-22T01:53:55;18.30;99.90
11005;DHT22;5555;59.622;16.556;2023-06-22T01:56:21;18.30;99.90
11005;DHT22;5555;59.622;16.556;2023-06-22T02:01:57;18.30;99.90
11005;DHT22;5555;59.622;16.556;2023-06-22T02:04:27;18.30;99.90
11005;DHT22;5555;59.622;16.556;2023-06-22T02:06:58;18.20;99.90
11005;DHT22;5555;59.622;16.556;2023-06-22T02:09:25;18.10;99.90
11005;DHT22;5555;59.622;16.556;2023-06-22T02:11:54;18.00;99.90
11005;DHT22;5555;59.622;16.556;2023-06-22T02:14:22;18.00;99.90
11005;DHT22;5555;59.622;16.556;2023-06-22T02:16:50;17.90;99.90
11005;DHT22;5555;59.622;16.556;2023-06-22T02:19:16;17.90;99.90
11005;DHT22;5555;59.622;16.556;2023-06-22T02:21:44;17.80;99.90
11005;DHT22;5555;59.622;16.556;2023-06-22T02:24:10;17.80;99.90
11005;DHT22;5555;59.622;16.556;2023-06-22T02:26:36;17.70;99.90
11005;DHT22;5555;59.622;16.556;2023-06-22T02:29:03;17.70;99.90
11005;DHT22;5555;59.622;16.556;2023-06-22T02:31:29;17.70;99.90
11005;DHT22;5555;59.622;16.556;2023-06-22T02:33:57;17.70;99.90
11005;DHT22;5555;59.622;16.556;2023-06-22T02:36:23;17.60;99.90
11005;DHT22;5555;59.622;16.556;2023-06-22T02:38:50;17.60;99.90
11005;DHT22;5555;59.622;16.556;2023-06-22T02:41:16;17.60;99.90
11005;DHT22;5555;59.622;16.556;2023-06-22T02:43:45;17.60;99.90
11005;DHT22;5555;59.622;16.556;2023-06-22T02:46:12;17.60;99.90
11005;DHT22;5555;59.622;16.556;2023-06-22T02:48:39;17.60;99.90
11005;DHT22;5555;59.622;16.556;2023-06-22T02:51:04;17.60;99.90
11005;DHT22;5555;59.622;16.556;2023-06-22T02:53:30;17.60;99.90
11005;DHT22;5555;59.622;16.556;2023-06-22T02:55:56;17.60;99.90
11005;DHT22;5555;59.622;16.556;2023-06-22T02:58:21;17.60;99.90
11005;DHT22;5555;59.622;16.556;2023-06-22T03:00:47;17.60;99.90
11005;DHT22;5555;59.622;16.556;2023-06-22T03:03:13;17.60;99.90
11005;DHT22;5555;59.622;16.556;2023-06-22T03:05:38;17.60;99.90
11005;DHT22;5555;59.622;16.556;2023-06-22T03:08:05;17.70;99.90
11005;DHT22;5555;59.622;16.556;2023-06-22T03:10:31;17.70;99.90
11005;DHT22;5555;59.622;16.556;2023-06-22T03:12:56;17.70;99.90
11005;DHT22;5555;59.622;16.556;2023-06-22T03:15:22;17.70;99.90
11005;DHT22;5555;59.622;16.556;2023-06-22T03:17:48;17.70;99.90
11005;DHT22;5555;59.622;16.556;2023-06-22T03:20:13;17.80;99.90
11005;DHT22;5555;59.622;16.556;2023-06-22T03:22:40;17.80;99.90
11005;DHT22;5555;59.622;16.556;2023-06-22T03:25:07;17.80;99.90
11005;DHT22;5555;59.622;16.556;2023-06-22T03:27:36;18.00;99.90
11005;DHT22;5555;59.622;16.556;2023-06-22T03:30:02;18.10;99.90
11005;DHT22;5555;59.622;16.556;2023-06-22T03:32:28;18.20;99.90
11005;DHT22;5555;59.622;16.556;2023-06-22T03:34:54;18.20;99.90
11005;DHT22;5555;59.622;16.556;2023-06-22T03:37:19;18.30;99.90
11005;DHT22;5555;59.622;16.556;2023-06-22T03:39:45;18.40;99.90
11005;DHT22;5555;59.622;16.556;2023-06-22T03:42:10;18.40;99.90
11005;DHT22;5555;59.622;16.556;2023-06-22T03:44:36;18.40;99.90
11005;DHT22;5555;59.622;16.556;2023-06-22T03:47:03;18.40;99.90
11005;DHT22;5555;59.622;16.556;2023-06-22T03:49:29;18.40;99.90
11005;DHT22;5555;59.622;16.556;2023-06-22T03:51:55;18.40;99.90
11005;DHT22;5555;59.622;16.556;2023-06-22T03:54:20;18.40;99.90
11005;DHT22;5555;59.622;16.556;2023-06-22T03:56:46;18.30;99.90
11005;DHT22;5555;59.622;16.556;2023-06-22T03:59:11;18.30;99.90
11005;DHT22;5555;59.622;16.556;2023-06-22T04:01:37;18.30;99.90
11005;DHT22;5555;59.622;16.556;2023-06-22T04:04:03;18.40;99.90
11005;DHT22;5555;59.622;16.556;2023-06-22T04:06:28;18.40;99.90
11005;DHT22;5555;59.622;16.556;2023-06-22T04:08:54;18.50;99.90
11005;DHT22;5555;59.622;16.556;2023-06-22T04:11:19;18.50;99.90
11005;DHT22;5555;59.622;16.556;2023-06-22T04:13:45;18.40;99.90
11005;DHT22;5555;59.622;16.556;2023-06-22T04:16:11;18.40;99.90
11005;DHT22;5555;59.622;16.556;2023-06-22T04:18:36;18.30;99.90
11005;DHT22;5555;59.622;16.556;2023-06-22T04:21:02;18.40;99.90
11005;DHT22;5555;59.622;16.556;2023-06-22T04:23:28;18.50;99.90
11005;DHT22;5555;59.622;16.556;2023-06-22T04:25:54;18.60;99.90
11005;DHT22;5555;59.622;16.556;2023-06-22T04:28:22;18.60;99.90
11005;DHT22;5555;59.622;16.556;2023-06-22T04:30:47;18.70;99.90
11005;DHT22;5555;59.622;16.556;2023-06-22T04:33:14;18.70;99.90
11005;DHT22;5555;59.622;16.556;2023-06-22T04:35:41;18.60;99.90
11005;DHT22;5555;59.622;16.556;2023-06-22T04:38:07;18.70;99.90
11005;DHT22;5555;59.622;16.556;2023-06-22T04:40:33;18.70;99.90
11005;DHT22;5555;59.622;16.556;2023-06-22T04:43:01;18.60;99.90
11005;DHT22;5555;59.622;16.556;2023-06-22T04:45:28;18.70;99.90
11005;DHT22;5555;59.622;16.556;2023-06-22T04:47:54;18.70;99.90
11005;DHT22;5555;59.622;16.556;2023-06-22T04:50:20;18.70;99.90
11005;DHT22;5555;59.622;16.556;2023-06-22T04:52:47;18.70;99.90
11005;DHT22;5555;59.622;16.556;2023-06-22T04:55:14;18.80;99.90
11005;DHT22;5555;59.622;16.556;2023-06-22T04:57:47;18.80;99.90
11005;DHT22;5555;59.622;16.556;2023-06-22T05:00:17;18.90;99.90
11005;DHT22;5555;59.622;16.556;2023-06-22T05:02:46;19.00;99.90
11005;DHT22;5555;59.622;16.556;2023-06-22T05:05:13;19.00;99.90
11005;DHT22;5555;59.622;16.556;2023-06-22T05:07:43;19.00;99.90
11005;DHT22;5555;59.622;16.556;2023-06-22T05:10:11;18.90;99.90
11005;DHT22;5555;59.622;16.556;2023-06-22T05:12:38;18.80;99.90
11005;DHT22;5555;59.622;16.556;2023-06-22T05:15:05;18.80;99.90
11005;DHT22;5555;59.622;16.556;2023-06-22T05:17:34;18.90;99.90
11005;DHT22;5555;59.622;16.556;2023-06-22T05:20:00;18.90;99.90
11005;DHT22;5555;59.622;16.556;2023-06-22T05:22:25;18.90;99.90
11005;DHT22;5555;59.622;16.556;2023-06-22T05:24:51;19.00;99.90
11005;DHT22;5555;59.622;16.556;2023-06-22T05:27:16;18.90;99.90
11005;DHT22;5555;59.622;16.556;2023-06-22T05:29:42;19.00;99.90
11005;DHT22;5555;59.622;16.556;2023-06-22T05:32:08;19.10;99.90
11005;DHT22;5555;59.622;16.556;2023-06-22T05:34:34;19.20;99.90
11005;DHT22;5555;59.622;16.556;2023-06-22T05:37:00;19.10;99.90
11005;DHT22;5555;59.622;16.556;2023-06-22T05:39:25;19.30;99.90
11005;DHT22;5555;59.622;16.556;2023-06-22T05:41:52;19.40;99.90
11005;DHT22;5555;59.622;16.556;2023-06-22T05:44:18;19.40;99.90
11005;DHT22;5555;59.622;16.556;2023-06-22T05:46:44;19.30;99.90
11005;DHT22;5555;59.622;16.556;2023-06-22T05:49:12;19.30;99.90
11005;DHT22;5555;59.622;16.556;2023-06-22T05:51:39;19.40;99.90
11005;DHT22;5555;59.622;16.556;2023-06-22T05:54:04;19.50;99.90
11005;DHT22;5555;59.622;16.556;2023-06-22T05:56:30;19.40;99.90
11005;DHT22;5555;59.622;16.556;2023-06-22T05:58:56;19.30;99.90
11005;DHT22;5555;59.622;16.556;2023-06-22T06:01:21;19.30;99.90
11005;DHT22;5555;59.622;16.556;2023-06-22T06:03:47;19.40;99.90
11005;DHT22;5555;59.622;16.556;2023-06-22T06:06:15;19.30;99.90
11005;DHT22;5555;59.622;16.556;2023-06-22T06:08:41;19.30;99.90
11005;DHT22;5555;59.622;16.556;2023-06-22T06:11:06;19.30;99.90
11005;DHT22;5555;59.622;16.556;2023-06-22T06:13:32;19.50;99.90
11005;DHT22;5555;59.622;16.556;2023-06-22T06:15:58;19.80;99.90
11005;DHT22;5555;59.622;16.556;2023-06-22T06:18:24;20.00;99.90
11005;DHT22;5555;59.622;16.556;2023-06-22T06:20:50;20.00;99.90
11005;DHT22;5555;59.622;16.556;2023-06-22T06:23:16;20.10;99.90
11005;DHT22;5555;59.622;16.556;2023-06-22T06:25:41;20.10;99.90
11005;DHT22;5555;59.622;16.556;2023-06-22T06:28:07;20.10;99.90
11005;DHT22;5555;59.622;16.556;2023-06-22T06:30:33;20.10;99.90
11005;DHT22;5555;59.622;16.556;2023-06-22T06:32:58;20.20;99.90
11005;DHT22;5555;59.622;16.556;2023-06-22T06:35:24;20.40;99.90
11005;DHT22;5555;59.622;16.556;2023-06-22T06:37:50;20.50;99.90
11005;DHT22;5555;59.622;16.556;2023-06-22T06:40:17;20.60;99.90
11005;DHT22;5555;59.622;16.556;2023-06-22T06:42:45;20.40;99.90
11005;DHT22;5555;59.622;16.556;2023-06-22T06:45:12;20.50;99.90
11005;DHT22;5555;59.622;16.556;2023-06-22T06:47:38;20.50;99.90
11005;DHT22;5555;59.622;16.556;2023-06-22T06:50:05;20.60;99.90
11005;DHT22;5555;59.622;16.556;2023-06-22T06:52:31;20.90;99.90
11005;DHT22;5555;59.622;16.556;2023-06-22T06:54:56;21.00;99.90
11005;DHT22;5555;59.622;16.556;2023-06-22T06:57:22;20.90;99.90
11005;DHT22;5555;59.622;16.556;2023-06-22T06:59:48;20.70;99.90
11005;DHT22;5555;59.622;16.556;2023-06-22T07:02:15;20.60;99.90
11005;DHT22;5555;59.622;16.556;2023-06-22T07:04:41;20.70;99.90
11005;DHT22;5555;59.622;16.556;2023-06-22T07:07:06;20.90;99.90
11005;DHT22;5555;59.622;16.556;2023-06-22T07:09:32;21.10;99.90
11005;DHT22;5555;59.622;16.556;2023-06-22T07:11:58;21.00;99.90
11005;DHT22;5555;59.622;16.556;2023-06-22T07:14:23;21.00;99.90
11005;DHT22;5555;59.622;16.556;2023-06-22T07:16:49;21.30;99.90
11005;DHT22;5555;59.622;16.556;2023-06-22T07:19:15;21.80;99.90
11005;DHT22;5555;59.622;16.556;2023-06-22T07:21:40;22.30;99.90
11005;DHT22;5555;59.622;16.556;2023-06-22T07:24:07;22.40;99.90
11005;DHT22;5555;59.622;16.556;2023-06-22T07:26:33;22.10;99.90
11005;DHT22;5555;59.622;16.556;2023-06-22T07:28:58;21.60;99.90
11005;DHT22;5555;59.622;16.556;2023-06-22T07:31:25;21.40;99.90
11005;DHT22;5555;59.622;16.556;2023-06-22T07:33:51;21.30;99.90
11005;DHT22;5555;59.622;16.556;2023-06-22T07:36:17;21.50;99.90
11005;DHT22;5555;59.622;16.556;2023-06-22T07:38:43;21.60;99.90
11005;DHT22;5555;59.622;16.556;2023-06-22T07:41:09;21.50;99.90
11005;DHT22;5555;59.622;16.556;2023-06-22T07:43:34;21.70;99.90
11005;DHT22;5555;59.622;16.556;2023-06-22T07:46:03;21.70;99.90
11005;DHT22;5555;59.622;16.556;2023-06-22T07:48:28;21.80;99.90
11005;DHT22;5555;59.622;16.556;2023-06-22T07:50:54;21.70;99.90
11005;DHT22;5555;59.622;16.556;2023-06-22T07:53:21;21.90;99.90
11005;DHT22;5555;59.622;16.556;2023-06-22T07:55:47;21.80;99.90
11005;DHT22;5555;59.622;16.556;2023-06-22T07:58:13;21.80;99.90
11005;DHT22;5555;59.622;16.556;2023-06-22T08:00:39;22.20;99.90
11005;DHT22;5555;59.622;16.556;2023-06-22T08:03:04;22.50;99.90
11005;DHT22;5555;59.622;16.556;2023-06-22T08:05:31;22.30;99.90
11005;DHT22;5555;59.622;16.556;2023-06-22T08:07:57;22.60;99.90
11005;DHT22;5555;59.622;16.556;2023-06-22T08:10:22;22.50;99.90
11005;DHT22;5555;59.622;16.556;2023-06-22T08:12:48;22.20;99.90
11005;DHT22;5555;59.622;16.556;2023-06-22T08:15:14;22.00;99.90
11005;DHT22;5555;59.622;16.556;2023-06-22T08:17:40;22.10;99.90
11005;DHT22;5555;59.622;16.556;2023-06-22T08:20:06;22.00;99.90
11005;DHT22;5555;59.622;16.556;2023-06-22T08:22:35;22.10;99.90
11005;DHT22;5555;59.622;16.556;2023-06-22T08:25:02;22.30;99.90
11005;DHT22;5555;59.622;16.556;2023-06-22T08:27:29;22.10;99.90
11005;DHT22;5555;59.622;16.556;2023-06-22T08:29:56;21.90;99.90
11005;DHT22;5555;59.622;16.556;2023-06-22T08:32:27;22.00;99.90
11005;DHT22;5555;59.622;16.556;2023-06-22T08:34:54;22.10;99.90
11005;DHT22;5555;59.622;16.556;2023-06-22T08:37:20;22.60;99.90
11005;DHT22;5555;59.622;16.556;2023-06-22T08:39:46;22.90;99.90
11005;DHT22;5555;59.622;16.556;2023-06-22T08:42:12;23.10;99.90
11005;DHT22;5555;59.622;16.556;2023-06-22T08:44:37;23.20;99.90
11005;DHT22;5555;59.622;16.556;2023-06-22T08:47:03;23.10;99.90
11005;DHT22;5555;59.622;16.556;2023-06-22T08:49:29;22.90;99.90
11005;DHT22;5555;59.622;16.556;2023-06-22T08:51:54;22.50;99.90
11005;DHT22;5555;59.622;16.556;2023-06-22T08:54:22;22.60;99.90
11005;DHT22;5555;59.622;16.556;2023-06-22T08:56:48;22.90;99.90
11005;DHT22;5555;59.622;16.556;2023-06-22T08:59:14;23.10;99.90
11005;DHT22;5555;59.622;16.556;2023-06-22T09:01:39;23.30;99.90
11005;DHT22;5555;59.622;16.556;2023-06-22T09:04:05;23.20;99.90
11005;DHT22;5555;59.622;16.556;2023-06-22T09:06:32;23.10;99.90
11005;DHT22;5555;59.622;16.556;2023-06-22T09:08:58;23.00;99.90
11005;DHT22;5555;59.622;16.556;2023-06-22T09:11:26;23.10;99.90
11005;DHT22;5555;59.622;16.556;2023-06-22T09:13:52;23.40;99.90
11005;DHT22;5555;59.622;16.556;2023-06-22T09:16:19;23.40;99.90
11005;DHT22;5555;59.622;16.556;2023-06-22T09:18:47;23.50;99.90
11005;DHT22;5555;59.622;16.556;2023-06-22T09:21:13;23.60;99.90
11005;DHT22;5555;59.622;16.556;2023-06-22T09:23:39;23.60;99.90
11005;DHT22;5555;59.622;16.556;2023-06-22T09:26:04;23.60;99.90
11005;DHT22;5555;59.622;16.556;2023-06-22T09:28:30;23.60;99.90
11005;DHT22;5555;59.622;16.556;2023-06-22T09:30:56;23.60;99.90
11005;DHT22;5555;59.622;16.556;2023-06-22T09:33:25;23.70;99.90
11005;DHT22;5555;59.622;16.556;2023-06-22T09:35:51;23.80;99.90
11005;DHT22;5555;59.622;16.556;2023-06-22T09:38:17;23.90;99.90
11005;DHT22;5555;59.622;16.556;2023-06-22T09:40:43;23.90;99.90
11005;DHT22;5555;59.622;16.556;2023-06-22T09:43:08;24.20;99.90
11005;DHT22;5555;59.622;16.556;2023-06-22T09:45:34;24.20;99.90
11005;DHT22;5555;59.622;16.556;2023-06-22T09:48:00;23.80;99.90
11005;DHT22;5555;59.622;16.556;2023-06-22T09:50:25;23.90;99.90
11005;DHT22;5555;59.622;16.556;2023-06-22T09:52:51;24.10;99.90
11005;DHT22;5555;59.622;16.556;2023-06-22T09:55:21;24.30;99.90
11005;DHT22;5555;59.622;16.556;2023-06-22T09:57:46;24.50;99.90
11005;DHT22;5555;59.622;16.556;2023-06-22T10:00:13;24.40;99.90
11005;DHT22;5555;59.622;16.556;2023-06-22T10:02:40;24.60;99.90
11005;DHT22;5555;59.622;16.556;2023-06-22T10:05:06;24.50;99.90
11005;DHT22;5555;59.622;16.556;2023-06-22T10:07:33;24.60;99.90
11005;DHT22;5555;59.622;16.556;2023-06-22T10:09:58;24.70;99.90
11005;DHT22;5555;59.622;16.556;2023-06-22T10:12:25;24.70;99.90
11005;DHT22;5555;59.622;16.556;2023-06-22T10:14:51;24.70;99.90
11005;DHT22;5555;59.622;16.556;2023-06-22T10:17:16;24.80;99.90
11005;DHT22;5555;59.622;16.556;2023-06-22T10:19:42;24.80;99.90
11005;DHT22;5555;59.622;16.556;2023-06-22T10:22:07;24.40;99.90
11005;DHT22;5555;59.622;16.556;2023-06-22T10:24:33;24.30;99.90
11005;DHT22;5555;59.622;16.556;2023-06-22T10:26:59;24.40;99.90
11005;DHT22;5555;59.622;16.556;2023-06-22T10:29:24;24.50;99.90
11005;DHT22;5555;59.622;16.556;2023-06-22T10:31:50;24.40;99.90
11005;DHT22;5555;59.622;16.556;2023-06-22T10:34:15;24.50;99.90
11005;DHT22;5555;59.622;16.556;2023-06-22T10:36:41;24.40;99.90
11005;DHT22;5555;59.622;16.556;2023-06-22T10:39:07;24.40;99.90
11005;DHT22;5555;59.622;16.556;2023-06-22T10:41:32;24.70;99.90
11005;DHT22;5555;59.622;16.556;2023-06-22T10:43:58;24.60;99.90
11005;DHT22;5555;59.622;16.556;2023-06-22T10:46:24;24.80;99.90
11005;DHT22;5555;59.622;16.556;2023-06-22T10:48:52;25.10;99.90
11005;DHT22;5555;59.622;16.556;2023-06-22T10:51:20;25.50;99.90
11005;DHT22;5555;59.622;16.556;2023-06-22T10:53:46;25.60;99.90
11005;DHT22;5555;59.622;16.556;2023-06-22T10:56:11;25.60;99.90
11005;DHT22;5555;59.622;16.556;2023-06-22T10:58:37;25.70;99.90
11005;DHT22;5555;59.622;16.556;2023-06-22T11:01:03;25.60;99.90
11005;DHT22;5555;59.622;16.556;2023-06-22T11:03:28;25.00;99.90
11005;DHT22;5555;59.622;16.556;2023-06-22T11:05:54;25.20;99.90
11005;DHT22;5555;59.622;16.556;2023-06-22T11:08:20;25.50;99.90
11005;DHT22;5555;59.622;16.556;2023-06-22T11:10:45;25.00;99.90
11005;DHT22;5555;59.622;16.556;2023-06-22T11:13:11;25.40;99.90
11005;DHT22;5555;59.622;16.556;2023-06-22T11:15:38;25.60;99.90
11005;DHT22;5555;59.622;16.556;2023-06-22T11:18:03;25.60;99.90
11005;DHT22;5555;59.622;16.556;2023-06-22T11:20:31;25.70;99.90
11005;DHT22;5555;59.622;16.556;2023-06-22T11:22:56;26.40;99.90
11005;DHT22;5555;59.622;16.556;2023-06-22T11:25:22;25.90;99.90
11005;DHT22;5555;59.622;16.556;2023-06-22T11:27:48;25.90;99.90
11005;DHT22;5555;59.622;16.556;2023-06-22T11:30:13;25.60;99.90
11005;DHT22;5555;59.622;16.556;2023-06-22T11:32:39;26.10;99.90
11005;DHT22;5555;59.622;16.556;2023-06-22T11:35:05;26.30;99.90
11005;DHT22;5555;59.622;16.556;2023-06-22T11:37:30;26.10;99.90
11005;DHT22;5555;59.622;16.556;2023-06-22T11:39:56;26.00;99.90
11005;DHT22;5555;59.622;16.556;2023-06-22T11:42:22;26.00;99.90
11005;DHT22;5555;59.622;16.556;2023-06-22T11:44:49;26.40;99.90
11005;DHT22;5555;59.622;16.556;2023-06-22T11:47:14;26.60;99.90
11005;DHT22;5555;59.622;16.556;2023-06-22T11:49:41;26.80;99.90
11005;DHT22;5555;59.622;16.556;2023-06-22T11:52:07;26.30;99.90
11005;DHT22;5555;59.622;16.556;2023-06-22T11:54:32;25.70;99.90
11005;DHT22;5555;59.622;16.556;2023-06-22T11:56:59;25.70;99.90
11005;DHT22;5555;59.622;16.556;2023-06-22T11:59:24;26.10;99.90
11005;DHT22;5555;59.622;16.556;2023-06-22T12:01:50;26.20;99.90
11005;DHT22;5555;59.622;16.556;2023-06-22T12:04:16;26.60;99.90
11005;DHT22;5555;59.622;16.556;2023-06-22T12:06:42;26.40;99.90
11005;DHT22;5555;59.622;16.556;2023-06-22T12:09:10;26.00;99.90
11005;DHT22;5555;59.622;16.556;2023-06-22T12:11:35;26.70;99.90
11005;DHT22;5555;59.622;16.556;2023-06-22T12:14:01;27.10;99.80
11005;DHT22;5555;59.622;16.556;2023-06-22T12:16:30;27.20;99.90
11005;DHT22;5555;59.622;16.556;2023-06-22T12:18:56;27.50;99.90
11005;DHT22;5555;59.622;16.556;2023-06-22T12:21:21;27.40;99.90
11005;DHT22;5555;59.622;16.556;2023-06-22T12:23:47;27.60;99.90
11005;DHT22;5555;59.622;16.556;2023-06-22T12:26:13;26.80;99.90
11005;DHT22;5555;59.622;16.556;2023-06-22T12:28:38;27.40;99.80
11005;DHT22;5555;59.622;16.556;2023-06-22T12:31:04;27.60;99.90
11005;DHT22;5555;59.622;16.556;2023-06-22T12:33:29;27.70;98.60
11005;DHT22;5555;59.622;16.556;2023-06-22T12:35:56;27.10;97.90
11005;DHT22;5555;59.622;16.556;2023-06-22T12:38:22;27.20;97.30
11005;DHT22;5555;59.622;16.556;2023-06-22T12:40:47;27.20;97.50
11005;DHT22;5555;59.622;16.556;2023-06-22T12:43:14;28.50;95.70
11005;DHT22;5555;59.622;16.556;2023-06-22T12:45:40;28.60;95.10
11005;DHT22;5555;59.622;16.556;2023-06-22T12:48:06;28.00;95.20
11005;DHT22;5555;59.622;16.556;2023-06-22T12:50:31;28.30;94.60
11005;DHT22;5555;59.622;16.556;2023-06-22T12:52:57;28.50;95.30
11005;DHT22;5555;59.622;16.556;2023-06-22T12:55:23;29.00;94.10
11005;DHT22;5555;59.622;16.556;2023-06-22T12:57:48;29.10;93.70
11005;DHT22;5555;59.622;16.556;2023-06-22T13:00:14;27.70;93.40
11005;DHT22;5555;59.622;16.556;2023-06-22T13:02:40;27.60;93.60
11005;DHT22;5555;59.622;16.556;2023-06-22T13:05:06;28.80;93.90
11005;DHT22;5555;59.622;16.556;2023-06-22T13:07:32;28.80;93.60
11005;DHT22;5555;59.622;16.556;2023-06-22T13:09:57;29.30;93.50
11005;DHT22;5555;59.622;16.556;2023-06-22T13:12:23;28.90;93.00
11005;DHT22;5555;59.622;16.556;2023-06-22T13:14:49;28.00;93.20
11005;DHT22;5555;59.622;16.556;2023-06-22T13:17:15;28.40;93.10
11005;DHT22;5555;59.622;16.556;2023-06-22T13:19:41;29.00;92.10
11005;DHT22;5555;59.622;16.556;2023-06-22T13:22:32;28.80;91.90
11005;DHT22;5555;59.622;16.556;2023-06-22T13:25:00;29.20;91.70
11005;DHT22;5555;59.622;16.556;2023-06-22T13:27:25;30.30;91.00
11005;DHT22;5555;59.622;16.556;2023-06-22T13:29:52;30.30;89.30
11005;DHT22;5555;59.622;16.556;2023-06-22T13:32:17;30.60;89.70
11005;DHT22;5555;59.622;16.556;2023-06-22T13:34:43;29.80;89.30
11005;DHT22;5555;59.622;16.556;2023-06-22T13:37:09;30.10;88.40
11005;DHT22;5555;59.622;16.556;2023-06-22T13:39:35;29.80;88.70
11005;DHT22;5555;59.622;16.556;2023-06-22T13:42:01;29.70;90.00
11005;DHT22;5555;59.622;16.556;2023-06-22T13:44:26;29.80;87.50
11005;DHT22;5555;59.622;16.556;2023-06-22T13:46:55;28.60;88.40
11005;DHT22;5555;59.622;16.556;2023-06-22T13:49:20;29.20;87.50
11005;DHT22;5555;59.622;16.556;2023-06-22T13:51:47;29.80;86.20
11005;DHT22;5555;59.622;16.556;2023-06-22T13:54:14;28.90;87.50
11005;DHT22;5555;59.622;16.556;2023-06-22T13:56:39;29.50;87.20
11005;DHT22;5555;59.622;16.556;2023-06-22T13:59:05;30.30;84.30
11005;DHT22;5555;59.622;16.556;2023-06-22T14:01:33;29.40;85.60
11005;DHT22;5555;59.622;16.556;2023-06-22T14:03:58;30.00;84.40
11005;DHT22;5555;59.622;16.556;2023-06-22T14:06:24;30.00;84.80
11005;DHT22;5555;59.622;16.556;2023-06-22T14:08:49;30.20;84.70
11005;DHT22;5555;59.622;16.556;2023-06-22T14:11:16;30.00;83.80
11005;DHT22;5555;59.622;16.556;2023-06-22T14:13:42;29.70;82.80
11005;DHT22;5555;59.622;16.556;2023-06-22T14:16:08;29.70;83.20
11005;DHT22;5555;59.622;16.556;2023-06-22T14:18:34;29.40;80.60
11005;DHT22;5555;59.622;16.556;2023-06-22T14:20:59;29.00;81.50
11005;DHT22;5555;59.622;16.556;2023-06-22T14:23:26;29.00;82.30
11005;DHT22;5555;59.622;16.556;2023-06-22T14:25:51;29.90;81.90
11005;DHT22;5555;59.622;16.556;2023-06-22T14:28:17;29.90;81.00
11005;DHT22;5555;59.622;16.556;2023-06-22T14:30:43;30.00;80.00
11005;DHT22;5555;59.622;16.556;2023-06-22T14:33:08;30.10;80.90
11005;DHT22;5555;59.622;16.556;2023-06-22T14:35:34;29.90;79.20
11005;DHT22;5555;59.622;16.556;2023-06-22T14:37:59;30.30;79.60
11005;DHT22;5555;59.622;16.556;2023-06-22T14:40:25;29.80;80.20
11005;DHT22;5555;59.622;16.556;2023-06-22T14:42:51;30.20;79.60
11005;DHT22;5555;59.622;16.556;2023-06-22T14:45:16;30.80;79.20
11005;DHT22;5555;59.622;16.556;2023-06-22T14:47:42;30.60;78.90
11005;DHT22;5555;59.622;16.556;2023-06-22T14:50:08;31.60;76.60
11005;DHT22;5555;59.622;16.556;2023-06-22T14:52:34;32.10;73.90
11005;DHT22;5555;59.622;16.556;2023-06-22T14:54:59;33.00;73.90
11005;DHT22;5555;59.622;16.556;2023-06-22T14:57:25;32.60;74.50
11005;DHT22;5555;59.622;16.556;2023-06-22T14:59:51;33.60;72.70
11005;DHT22;5555;59.622;16.556;2023-06-22T15:02:16;33.50;71.70
11005;DHT22;5555;59.622;16.556;2023-06-22T15:04:42;32.60;71.20
11005;DHT22;5555;59.622;16.556;2023-06-22T15:07:08;32.20;72.10
11005;DHT22;5555;59.622;16.556;2023-06-22T15:09:33;32.00;72.60
11005;DHT22;5555;59.622;16.556;2023-06-22T15:11:59;32.10;72.40
11005;DHT22;5555;59.622;16.556;2023-06-22T15:14:27;33.50;70.60
11005;DHT22;5555;59.622;16.556;2023-06-22T15:16:53;32.50;70.30
11005;DHT22;5555;59.622;16.556;2023-06-22T15:19:18;32.00;71.50
11005;DHT22;5555;59.622;16.556;2023-06-22T15:21:44;32.10;71.40
11005;DHT22;5555;59.622;16.556;2023-06-22T15:24:11;31.30;71.70
11005;DHT22;5555;59.622;16.556;2023-06-22T15:26:36;30.80;72.90
11005;DHT22;5555;59.622;16.556;2023-06-22T15:29:02;30.50;72.50
11005;DHT22;5555;59.622;16.556;2023-06-22T15:31:28;29.90;72.40